sensor_id;sensor_type;location;lat;lon;timestamp;P1;durP1;ratioP1;P2;durP2;ratioP2
67981;SDS011;64109;52.148;4.466;2022-11-15T00:02:11;13.00;;;7.30;;
67981;SDS011;64109;52.148;4.466;2022-11-15T00:04:37;12.45;;;7.32;;
67981;SDS011;64109;52.148;4.466;2022-11-15T00:07:03;14.77;;;7.53;;
67981;SDS011;64109;52.148;4.466;2022-11-15T00:09:29;12.27;;;7.07;;
67981;SDS011;64109;52.148;4.466;2022-11-15T00:11:55;11.00;;;7.22;;
67981;SDS011;64109;52.148;4.466;2022-11-15T00:14:21;15.77;;;7.95;;
67981;SDS011;64109;52.148;4.466;2022-11-15T00:16:47;16.95;;;9.95;;
67981;SDS011;64109;52.148;4.466;2022-11-15T00:19:13;22.40;;;9.18;;
67981;SDS011;64109;52.148;4.466;2022-11-15T00:21:39;17.65;;;8.90;;
67981;SDS011;64109;52.148;4.466;2022-11-15T00:24:05;21.38;;;9.63;;
67981;SDS011;64109;52.148;4.466;2022-11-15T00:26:31;15.70;;;8.85;;
67981;SDS011;64109;52.148;4.466;2022-11-15T00:28:57;16.77;;;8.60;;
67981;SDS011;64109;52.148;4.466;2022-11-15T00:31:23;20.10;;;9.27;;
67981;SDS011;64109;52.148;4.466;2022-11-15T00:33:49;20.58;;;9.23;;
67981;SDS011;64109;52.148;4.466;2022-11-15T00:36:15;16.92;;;8.65;;
67981;SDS011;64109;52.148;4.466;2022-11-15T00:38:41;18.63;;;8.98;;
67981;SDS011;64109;52.148;4.466;2022-11-15T00:41:07;18.27;;;8.93;;
67981;SDS011;64109;52.148;4.466;2022-11-15T00:43:33;18.13;;;8.88;;
67981;SDS011;64109;52.148;4.466;2022-11-15T00:46:00;16.13;;;8.63;;
67981;SDS011;64109;52.148;4.466;2022-11-15T00:48:27;22.45;;;8.73;;
67981;SDS011;64109;52.148;4.466;2022-11-15T00:50:53;17.60;;;9.48;;
67981;SDS011;64109;52.148;4.466;2022-11-15T00:53:19;17.77;;;9.38;;
67981;SDS011;64109;52.148;4.466;2022-11-15T00:55:45;19.25;;;8.55;;
67981;SDS011;64109;52.148;4.466;2022-11-15T00:58:11;17.25;;;9.02;;
67981;SDS011;64109;52.148;4.466;2022-11-15T01:00:37;17.23;;;8.80;;
67981;SDS011;64109;52.148;4.466;2022-11-15T01:03:03;17.10;;;9.07;;
67981;SDS011;64109;52.148;4.466;2022-11-15T01:05:29;20.38;;;9.07;;
67981;SDS011;64109;52.148;4.466;2022-11-15T01:07:55;16.08;;;8.88;;
67981;SDS011;64109;52.148;4.466;2022-11-15T01:10:22;17.60;;;8.93;;
67981;SDS011;64109;52.148;4.466;2022-11-15T01:12:48;19.25;;;9.20;;
67981;SDS011;64109;52.148;4.466;2022-11-15T01:15:14;17.70;;;8.93;;
67981;SDS011;64109;52.148;4.466;2022-11-15T01:17:40;18.75;;;8.93;;
67981;SDS011;64109;52.148;4.466;2022-11-15T01:20:06;17.95;;;8.90;;
67981;SDS011;64109;52.148;4.466;2022-11-15T01:22:32;18.35;;;8.82;;
67981;SDS011;64109;52.148;4.466;2022-11-15T01:24:58;17.08;;;8.55;;
67981;SDS011;64109;52.148;4.466;2022-11-15T01:27:25;18.05;;;9.50;;
67981;SDS011;64109;52.148;4.466;2022-11-15T01:29:51;17.38;;;9.02;;
67981;SDS011;64109;52.148;4.466;2022-11-15T01:32:17;17.83;;;9.55;;
67981;SDS011;64109;52.148;4.466;2022-11-15T01:34:43;20.45;;;9.77;;
67981;SDS011;64109;52.148;4.466;2022-11-15T01:37:09;20.38;;;9.95;;
67981;SDS011;64109;52.148;4.466;2022-11-15T01:39:35;17.45;;;8.68;;
67981;SDS011;64109;52.148;4.466;2022-11-15T01:42:01;19.08;;;9.90;;
67981;SDS011;64109;52.148;4.466;2022-11-15T01:46:57;20.55;;;9.15;;
67981;SDS011;64109;52.148;4.466;2022-11-15T01:49:23;19.85;;;9.07;;
67981;SDS011;64109;52.148;4.466;2022-11-15T01:51:49;18.35;;;9.23;;
67981;SDS011;64109;52.148;4.466;2022-11-15T01:54:16;18.15;;;8.70;;
67981;SDS011;64109;52.148;4.466;2022-11-15T01:56:43;19.98;;;9.38;;
67981;SDS011;64109;52.148;4.466;2022-11-15T01:59:11;18.02;;;8.55;;
67981;SDS011;64109;52.148;4.466;2022-11-15T02:01:37;20.52;;;9.98;;
67981;SDS011;64109;52.148;4.466;2022-11-15T02:04:06;20.13;;;8.88;;
67981;SDS011;64109;52.148;4.466;2022-11-15T02:06:34;18.67;;;10.77;;
67981;SDS011;64109;52.148;4.466;2022-11-15T02:09:01;20.85;;;9.95;;
67981;SDS011;64109;52.148;4.466;2022-11-15T02:11:27;18.20;;;9.10;;
67981;SDS011;64109;52.148;4.466;2022-11-15T02:13:54;19.55;;;10.68;;
67981;SDS011;64109;52.148;4.466;2022-11-15T02:24:32;20.20;;;9.95;;
67981;SDS011;64109;52.148;4.466;2022-11-15T02:40:06;21.35;;;10.90;;
67981;SDS011;64109;52.148;4.466;2022-11-15T02:42:45;21.45;;;9.80;;
67981;SDS011;64109;52.148;4.466;2022-11-15T02:45:35;19.05;;;9.73;;
67981;SDS011;64109;52.148;4.466;2022-11-15T02:48:02;25.05;;;10.45;;
67981;SDS011;64109;52.148;4.466;2022-11-15T02:50:30;19.77;;;9.40;;
67981;SDS011;64109;52.148;4.466;2022-11-15T02:52:57;20.92;;;9.98;;
67981;SDS011;64109;52.148;4.466;2022-11-15T02:55:33;21.48;;;10.18;;
67981;SDS011;64109;52.148;4.466;2022-11-15T03:00:30;20.48;;;9.30;;
67981;SDS011;64109;52.148;4.466;2022-11-15T03:16:12;24.10;;;10.40;;
67981;SDS011;64109;52.148;4.466;2022-11-15T03:18:44;18.60;;;9.20;;
67981;SDS011;64109;52.148;4.466;2022-11-15T03:21:11;21.63;;;9.75;;
67981;SDS011;64109;52.148;4.466;2022-11-15T03:23:38;20.55;;;9.30;;
67981;SDS011;64109;52.148;4.466;2022-11-15T03:26:05;22.40;;;10.52;;
67981;SDS011;64109;52.148;4.466;2022-11-15T03:28:33;24.10;;;11.65;;
67981;SDS011;64109;52.148;4.466;2022-11-15T03:31:01;21.95;;;9.80;;
67981;SDS011;64109;52.148;4.466;2022-11-15T03:33:48;23.05;;;10.82;;
67981;SDS011;64109;52.148;4.466;2022-11-15T03:36:14;18.95;;;8.85;;
67981;SDS011;64109;52.148;4.466;2022-11-15T03:38:41;21.42;;;9.52;;
67981;SDS011;64109;52.148;4.466;2022-11-15T03:41:08;24.13;;;10.05;;
67981;SDS011;64109;52.148;4.466;2022-11-15T03:43:41;20.77;;;10.32;;
67981;SDS011;64109;52.148;4.466;2022-11-15T03:46:14;26.00;;;9.82;;
67981;SDS011;64109;52.148;4.466;2022-11-15T03:48:42;23.02;;;10.10;;
67981;SDS011;64109;52.148;4.466;2022-11-15T03:51:09;23.42;;;12.13;;
67981;SDS011;64109;52.148;4.466;2022-11-15T03:53:35;21.70;;;10.57;;
67981;SDS011;64109;52.148;4.466;2022-11-15T03:56:01;18.50;;;9.65;;
67981;SDS011;64109;52.148;4.466;2022-11-15T03:58:27;21.20;;;10.57;;
67981;SDS011;64109;52.148;4.466;2022-11-15T04:00:53;21.83;;;9.82;;
67981;SDS011;64109;52.148;4.466;2022-11-15T04:03:19;20.38;;;10.10;;
67981;SDS011;64109;52.148;4.466;2022-11-15T04:05:45;20.50;;;9.88;;
67981;SDS011;64109;52.148;4.466;2022-11-15T04:08:11;21.05;;;9.40;;
67981;SDS011;64109;52.148;4.466;2022-11-15T04:10:37;18.48;;;9.15;;
67981;SDS011;64109;52.148;4.466;2022-11-15T04:13:03;18.63;;;9.35;;
67981;SDS011;64109;52.148;4.466;2022-11-15T04:15:29;19.45;;;9.68;;
67981;SDS011;64109;52.148;4.466;2022-11-15T04:17:56;19.35;;;9.57;;
67981;SDS011;64109;52.148;4.466;2022-11-15T04:20:23;17.20;;;9.10;;
67981;SDS011;64109;52.148;4.466;2022-11-15T04:23:12;15.57;;;8.20;;
67981;SDS011;64109;52.148;4.466;2022-11-15T04:25:58;17.80;;;8.60;;
67981;SDS011;64109;52.148;4.466;2022-11-15T04:28:24;19.63;;;8.57;;
67981;SDS011;64109;52.148;4.466;2022-11-15T04:30:51;16.20;;;8.52;;
67981;SDS011;64109;52.148;4.466;2022-11-15T04:33:17;16.23;;;8.68;;
67981;SDS011;64109;52.148;4.466;2022-11-15T04:35:43;20.48;;;8.77;;
67981;SDS011;64109;52.148;4.466;2022-11-15T04:38:29;15.55;;;8.13;;
67981;SDS011;64109;52.148;4.466;2022-11-15T04:40:54;18.00;;;8.02;;
67981;SDS011;64109;52.148;4.466;2022-11-15T04:43:20;15.38;;;7.85;;
67981;SDS011;64109;52.148;4.466;2022-11-15T04:45:46;14.50;;;8.20;;
67981;SDS011;64109;52.148;4.466;2022-11-15T04:48:12;15.82;;;7.93;;
67981;SDS011;64109;52.148;4.466;2022-11-15T04:50:38;15.98;;;7.38;;
67981;SDS011;64109;52.148;4.466;2022-11-15T04:53:04;14.02;;;7.05;;
67981;SDS011;64109;52.148;4.466;2022-11-15T04:55:31;13.75;;;7.18;;
67981;SDS011;64109;52.148;4.466;2022-11-15T04:57:57;14.77;;;6.95;;
67981;SDS011;64109;52.148;4.466;2022-11-15T05:00:24;13.30;;;7.90;;
67981;SDS011;64109;52.148;4.466;2022-11-15T05:02:50;16.50;;;6.78;;
67981;SDS011;64109;52.148;4.466;2022-11-15T05:05:35;13.30;;;7.15;;
67981;SDS011;64109;52.148;4.466;2022-11-15T05:08:01;11.57;;;6.18;;
67981;SDS011;64109;52.148;4.466;2022-11-15T05:10:27;11.05;;;6.15;;
67981;SDS011;64109;52.148;4.466;2022-11-15T05:12:53;11.82;;;6.25;;
67981;SDS011;64109;52.148;4.466;2022-11-15T05:15:19;13.57;;;6.38;;
67981;SDS011;64109;52.148;4.466;2022-11-15T05:17:45;12.38;;;5.82;;
67981;SDS011;64109;52.148;4.466;2022-11-15T05:20:11;14.23;;;6.15;;
67981;SDS011;64109;52.148;4.466;2022-11-15T05:22:37;11.38;;;5.90;;
67981;SDS011;64109;52.148;4.466;2022-11-15T05:25:04;10.38;;;6.03;;
67981;SDS011;64109;52.148;4.466;2022-11-15T05:27:30;11.38;;;5.63;;
67981;SDS011;64109;52.148;4.466;2022-11-15T05:29:56;12.00;;;5.60;;
67981;SDS011;64109;52.148;4.466;2022-11-15T05:32:22;13.77;;;5.38;;
67981;SDS011;64109;52.148;4.466;2022-11-15T05:34:48;9.60;;;4.93;;
67981;SDS011;64109;52.148;4.466;2022-11-15T05:37:14;8.73;;;5.32;;
67981;SDS011;64109;52.148;4.466;2022-11-15T05:39:40;9.98;;;4.82;;
67981;SDS011;64109;52.148;4.466;2022-11-15T05:42:10;7.75;;;5.03;;
67981;SDS011;64109;52.148;4.466;2022-11-15T05:44:37;11.45;;;5.15;;
67981;SDS011;64109;52.148;4.466;2022-11-15T05:47:05;10.63;;;4.63;;
67981;SDS011;64109;52.148;4.466;2022-11-15T05:49:33;9.70;;;4.80;;
67981;SDS011;64109;52.148;4.466;2022-11-15T05:52:02;10.27;;;4.53;;
67981;SDS011;64109;52.148;4.466;2022-11-15T05:54:29;8.95;;;4.47;;
67981;SDS011;64109;52.148;4.466;2022-11-15T05:56:56;9.18;;;4.78;;
67981;SDS011;64109;52.148;4.466;2022-11-15T05:59:22;8.90;;;4.50;;
67981;SDS011;64109;52.148;4.466;2022-11-15T06:01:48;8.68;;;4.40;;
67981;SDS011;64109;52.148;4.466;2022-11-15T06:04:14;9.38;;;4.60;;
67981;SDS011;64109;52.148;4.466;2022-11-15T06:06:40;8.77;;;4.32;;
67981;SDS011;64109;52.148;4.466;2022-11-15T06:09:06;10.30;;;4.65;;
67981;SDS011;64109;52.148;4.466;2022-11-15T06:11:32;9.30;;;4.40;;
67981;SDS011;64109;52.148;4.466;2022-11-15T06:13:58;8.75;;;4.35;;
67981;SDS011;64109;52.148;4.466;2022-11-15T06:16:24;13.00;;;4.28;;
67981;SDS011;64109;52.148;4.466;2022-11-15T06:18:50;8.38;;;4.18;;
67981;SDS011;64109;52.148;4.466;2022-11-15T06:21:16;7.50;;;4.88;;
67981;SDS011;64109;52.148;4.466;2022-11-15T06:23:42;10.20;;;4.25;;
67981;SDS011;64109;52.148;4.466;2022-11-15T06:26:08;7.45;;;4.05;;
67981;SDS011;64109;52.148;4.466;2022-11-15T06:28:34;9.73;;;4.05;;
67981;SDS011;64109;52.148;4.466;2022-11-15T06:31:07;9.02;;;4.15;;
67981;SDS011;64109;52.148;4.466;2022-11-15T06:33:33;6.72;;;4.10;;
67981;SDS011;64109;52.148;4.466;2022-11-15T06:36:00;12.90;;;4.15;;
67981;SDS011;64109;52.148;4.466;2022-11-15T06:38:26;10.52;;;3.95;;
67981;SDS011;64109;52.148;4.466;2022-11-15T06:40:52;8.65;;;3.17;;
67981;SDS011;64109;52.148;4.466;2022-11-15T06:43:18;9.05;;;3.42;;
67981;SDS011;64109;52.148;4.466;2022-11-15T06:45:44;6.10;;;2.90;;
67981;SDS011;64109;52.148;4.466;2022-11-15T06:48:10;7.35;;;2.97;;
67981;SDS011;64109;52.148;4.466;2022-11-15T06:50:36;6.93;;;3.55;;
67981;SDS011;64109;52.148;4.466;2022-11-15T06:53:05;6.32;;;3.28;;
67981;SDS011;64109;52.148;4.466;2022-11-15T06:55:31;7.93;;;3.28;;
67981;SDS011;64109;52.148;4.466;2022-11-15T06:57:57;6.57;;;2.85;;
67981;SDS011;64109;52.148;4.466;2022-11-15T07:00:23;6.78;;;2.70;;
67981;SDS011;64109;52.148;4.466;2022-11-15T07:02:49;6.57;;;2.83;;
67981;SDS011;64109;52.148;4.466;2022-11-15T07:05:15;9.95;;;2.80;;
67981;SDS011;64109;52.148;4.466;2022-11-15T07:07:41;8.02;;;2.85;;
67981;SDS011;64109;52.148;4.466;2022-11-15T07:10:07;7.13;;;2.80;;
67981;SDS011;64109;52.148;4.466;2022-11-15T07:12:33;10.75;;;3.33;;
67981;SDS011;64109;52.148;4.466;2022-11-15T07:14:59;5.80;;;2.88;;
67981;SDS011;64109;52.148;4.466;2022-11-15T07:17:25;8.15;;;2.97;;
67981;SDS011;64109;52.148;4.466;2022-11-15T07:19:51;9.35;;;4.25;;
67981;SDS011;64109;52.148;4.466;2022-11-15T07:22:17;8.45;;;3.08;;
67981;SDS011;64109;52.148;4.466;2022-11-15T07:24:43;7.38;;;2.65;;
67981;SDS011;64109;52.148;4.466;2022-11-15T07:27:09;8.23;;;3.47;;
67981;SDS011;64109;52.148;4.466;2022-11-15T07:29:35;8.52;;;2.95;;
67981;SDS011;64109;52.148;4.466;2022-11-15T07:32:01;8.50;;;3.60;;
67981;SDS011;64109;52.148;4.466;2022-11-15T07:34:27;7.53;;;2.85;;
67981;SDS011;64109;52.148;4.466;2022-11-15T07:36:53;5.53;;;3.00;;
67981;SDS011;64109;52.148;4.466;2022-11-15T07:39:19;7.43;;;2.63;;
67981;SDS011;64109;52.148;4.466;2022-11-15T07:41:45;6.65;;;2.50;;
67981;SDS011;64109;52.148;4.466;2022-11-15T07:44:13;6.40;;;2.80;;
67981;SDS011;64109;52.148;4.466;2022-11-15T07:46:39;5.93;;;2.78;;
67981;SDS011;64109;52.148;4.466;2022-11-15T07:49:05;4.47;;;2.40;;
67981;SDS011;64109;52.148;4.466;2022-11-15T07:51:30;5.85;;;2.75;;
67981;SDS011;64109;52.148;4.466;2022-11-15T07:53:56;7.32;;;2.50;;
67981;SDS011;64109;52.148;4.466;2022-11-15T07:56:22;7.35;;;2.35;;
67981;SDS011;64109;52.148;4.466;2022-11-15T07:58:48;8.32;;;2.90;;
67981;SDS011;64109;52.148;4.466;2022-11-15T08:01:15;8.15;;;2.47;;
67981;SDS011;64109;52.148;4.466;2022-11-15T08:03:41;7.55;;;2.78;;
67981;SDS011;64109;52.148;4.466;2022-11-15T08:06:07;5.38;;;2.65;;
67981;SDS011;64109;52.148;4.466;2022-11-15T08:08:33;11.65;;;3.42;;
67981;SDS011;64109;52.148;4.466;2022-11-15T08:10:59;11.88;;;4.38;;
67981;SDS011;64109;52.148;4.466;2022-11-15T08:13:25;10.38;;;3.20;;
67981;SDS011;64109;52.148;4.466;2022-11-15T08:15:51;8.18;;;2.85;;
67981;SDS011;64109;52.148;4.466;2022-11-15T08:18:17;5.88;;;3.08;;
67981;SDS011;64109;52.148;4.466;2022-11-15T08:20:43;5.88;;;2.72;;
67981;SDS011;64109;52.148;4.466;2022-11-15T08:23:10;7.53;;;4.22;;
67981;SDS011;64109;52.148;4.466;2022-11-15T08:25:37;6.35;;;2.72;;
67981;SDS011;64109;52.148;4.466;2022-11-15T08:28:04;6.75;;;2.63;;
67981;SDS011;64109;52.148;4.466;2022-11-15T08:30:33;8.07;;;2.72;;
67981;SDS011;64109;52.148;4.466;2022-11-15T08:33:01;6.55;;;2.88;;
67981;SDS011;64109;52.148;4.466;2022-11-15T08:35:27;8.02;;;2.50;;
67981;SDS011;64109;52.148;4.466;2022-11-15T08:37:53;5.85;;;2.80;;
67981;SDS011;64109;52.148;4.466;2022-11-15T08:40:20;7.40;;;2.55;;
67981;SDS011;64109;52.148;4.466;2022-11-15T08:42:46;8.45;;;2.72;;
67981;SDS011;64109;52.148;4.466;2022-11-15T08:45:12;8.07;;;2.65;;
67981;SDS011;64109;52.148;4.466;2022-11-15T08:47:38;6.03;;;3.60;;
67981;SDS011;64109;52.148;4.466;2022-11-15T08:50:04;9.38;;;2.90;;
67981;SDS011;64109;52.148;4.466;2022-11-15T08:52:31;6.97;;;2.70;;
67981;SDS011;64109;52.148;4.466;2022-11-15T08:54:57;4.95;;;2.33;;
67981;SDS011;64109;52.148;4.466;2022-11-15T08:57:23;8.02;;;2.95;;
67981;SDS011;64109;52.148;4.466;2022-11-15T08:59:49;5.85;;;2.20;;
67981;SDS011;64109;52.148;4.466;2022-11-15T09:02:15;9.55;;;2.83;;
67981;SDS011;64109;52.148;4.466;2022-11-15T09:04:41;8.52;;;2.50;;
67981;SDS011;64109;52.148;4.466;2022-11-15T09:07:09;6.00;;;2.65;;
67981;SDS011;64109;52.148;4.466;2022-11-15T09:09:35;7.80;;;2.92;;
67981;SDS011;64109;52.148;4.466;2022-11-15T09:12:01;5.78;;;2.28;;
67981;SDS011;64109;52.148;4.466;2022-11-15T09:14:27;4.53;;;2.10;;
67981;SDS011;64109;52.148;4.466;2022-11-15T09:16:53;6.30;;;2.70;;
67981;SDS011;64109;52.148;4.466;2022-11-15T09:19:19;5.97;;;2.20;;
67981;SDS011;64109;52.148;4.466;2022-11-15T09:21:45;5.55;;;2.33;;
67981;SDS011;64109;52.148;4.466;2022-11-15T09:24:11;5.15;;;2.33;;
67981;SDS011;64109;52.148;4.466;2022-11-15T09:26:37;8.98;;;2.40;;
67981;SDS011;64109;52.148;4.466;2022-11-15T09:29:02;6.95;;;3.00;;
67981;SDS011;64109;52.148;4.466;2022-11-15T09:31:29;9.68;;;2.53;;
67981;SDS011;64109;52.148;4.466;2022-11-15T09:33:55;5.85;;;2.60;;
67981;SDS011;64109;52.148;4.466;2022-11-15T09:36:21;5.22;;;2.38;;
67981;SDS011;64109;52.148;4.466;2022-11-15T09:38:47;4.28;;;2.00;;
67981;SDS011;64109;52.148;4.466;2022-11-15T09:47:26;5.85;;;2.17;;
67981;SDS011;64109;52.148;4.466;2022-11-15T09:49:18;8.60;;;1.95;;
67981;SDS011;64109;52.148;4.466;2022-11-15T09:51:45;7.60;;;2.38;;
67981;SDS011;64109;52.148;4.466;2022-11-15T09:57:04;6.13;;;2.00;;
67981;SDS011;64109;52.148;4.466;2022-11-15T10:04:27;5.15;;;2.00;;
67981;SDS011;64109;52.148;4.466;2022-11-15T10:07:04;4.72;;;2.30;;
67981;SDS011;64109;52.148;4.466;2022-11-15T10:09:35;5.95;;;2.17;;
67981;SDS011;64109;52.148;4.466;2022-11-15T10:12:03;5.90;;;2.28;;
67981;SDS011;64109;52.148;4.466;2022-11-15T10:14:29;5.03;;;2.17;;
67981;SDS011;64109;52.148;4.466;2022-11-15T10:17:08;6.13;;;2.28;;
67981;SDS011;64109;52.148;4.466;2022-11-15T10:24:47;4.97;;;2.40;;
67981;SDS011;64109;52.148;4.466;2022-11-15T10:27:14;4.13;;;1.80;;
67981;SDS011;64109;52.148;4.466;2022-11-15T10:29:42;3.35;;;2.10;;
67981;SDS011;64109;52.148;4.466;2022-11-15T10:32:09;5.30;;;1.70;;
67981;SDS011;64109;52.148;4.466;2022-11-15T10:34:36;4.63;;;1.77;;
67981;SDS011;64109;52.148;4.466;2022-11-15T10:37:02;4.85;;;2.00;;
67981;SDS011;64109;52.148;4.466;2022-11-15T10:39:28;5.40;;;1.92;;
67981;SDS011;64109;52.148;4.466;2022-11-15T10:41:54;4.53;;;1.83;;
67981;SDS011;64109;52.148;4.466;2022-11-15T10:44:21;5.40;;;2.20;;
67981;SDS011;64109;52.148;4.466;2022-11-15T10:49:22;4.38;;;2.05;;
67981;SDS011;64109;52.148;4.466;2022-11-15T10:51:57;3.85;;;1.88;;
67981;SDS011;64109;52.148;4.466;2022-11-15T10:54:27;6.10;;;1.80;;
67981;SDS011;64109;52.148;4.466;2022-11-15T10:56:56;4.45;;;1.77;;
67981;SDS011;64109;52.148;4.466;2022-11-15T10:59:26;6.80;;;1.60;;
67981;SDS011;64109;52.148;4.466;2022-11-15T11:01:53;4.88;;;1.60;;
67981;SDS011;64109;52.148;4.466;2022-11-15T11:04:19;4.82;;;1.80;;
67981;SDS011;64109;52.148;4.466;2022-11-15T11:09:21;5.65;;;2.05;;
67981;SDS011;64109;52.148;4.466;2022-11-15T11:14:20;4.22;;;1.35;;
67981;SDS011;64109;52.148;4.466;2022-11-15T11:19:35;6.05;;;1.75;;
67981;SDS011;64109;52.148;4.466;2022-11-15T11:22:06;4.25;;;1.58;;
67981;SDS011;64109;52.148;4.466;2022-11-15T11:40:11;4.13;;;1.63;;
67981;SDS011;64109;52.148;4.466;2022-11-15T11:42:50;3.53;;;1.52;;
67981;SDS011;64109;52.148;4.466;2022-11-15T11:48:12;4.47;;;1.65;;
67981;SDS011;64109;52.148;4.466;2022-11-15T11:50:39;6.30;;;2.45;;
67981;SDS011;64109;52.148;4.466;2022-11-15T11:53:14;4.72;;;2.00;;
67981;SDS011;64109;52.148;4.466;2022-11-15T11:55:42;5.50;;;2.22;;
67981;SDS011;64109;52.148;4.466;2022-11-15T12:00:41;6.22;;;1.88;;
67981;SDS011;64109;52.148;4.466;2022-11-15T12:03:11;4.25;;;1.55;;
67981;SDS011;64109;52.148;4.466;2022-11-15T12:05:40;5.25;;;1.33;;
67981;SDS011;64109;52.148;4.466;2022-11-15T12:13:28;6.85;;;1.42;;
67981;SDS011;64109;52.148;4.466;2022-11-15T12:18:24;7.90;;;1.73;;
67981;SDS011;64109;52.148;4.466;2022-11-15T12:20:58;4.72;;;1.42;;
67981;SDS011;64109;52.148;4.466;2022-11-15T12:28:24;2.25;;;1.50;;
67981;SDS011;64109;52.148;4.466;2022-11-15T12:33:36;5.18;;;1.50;;
67981;SDS011;64109;52.148;4.466;2022-11-15T12:36:04;3.72;;;1.40;;
67981;SDS011;64109;52.148;4.466;2022-11-15T12:41:15;3.60;;;1.70;;
67981;SDS011;64109;52.148;4.466;2022-11-15T12:43:42;2.72;;;1.30;;
67981;SDS011;64109;52.148;4.466;2022-11-15T12:47:00;5.00;;;1.15;;
67981;SDS011;64109;52.148;4.466;2022-11-15T12:49:11;3.38;;;1.30;;
67981;SDS011;64109;52.148;4.466;2022-11-15T13:02:20;4.43;;;1.30;;
67981;SDS011;64109;52.148;4.466;2022-11-15T13:04:46;3.72;;;1.30;;
67981;SDS011;64109;52.148;4.466;2022-11-15T13:09:57;3.05;;;1.20;;
67981;SDS011;64109;52.148;4.466;2022-11-15T13:14:52;2.50;;;1.10;;
67981;SDS011;64109;52.148;4.466;2022-11-15T13:19:49;4.28;;;1.45;;
67981;SDS011;64109;52.148;4.466;2022-11-15T13:22:17;3.95;;;1.20;;
67981;SDS011;64109;52.148;4.466;2022-11-15T13:25:02;2.05;;;1.00;;
67981;SDS011;64109;52.148;4.466;2022-11-15T13:27:28;6.57;;;1.67;;
67981;SDS011;64109;52.148;4.466;2022-11-15T13:29:55;3.25;;;1.10;;
67981;SDS011;64109;52.148;4.466;2022-11-15T13:32:20;4.05;;;1.60;;
67981;SDS011;64109;52.148;4.466;2022-11-15T13:34:47;2.30;;;1.00;;
67981;SDS011;64109;52.148;4.466;2022-11-15T13:39:46;3.33;;;0.90;;
67981;SDS011;64109;52.148;4.466;2022-11-15T13:42:16;3.88;;;1.40;;
67981;SDS011;64109;52.148;4.466;2022-11-15T13:44:54;2.80;;;1.33;;
67981;SDS011;64109;52.148;4.466;2022-11-15T13:47:20;2.95;;;1.15;;
67981;SDS011;64109;52.148;4.466;2022-11-15T13:49:46;2.42;;;1.02;;
67981;SDS011;64109;52.148;4.466;2022-11-15T13:52:13;3.47;;;1.13;;
67981;SDS011;64109;52.148;4.466;2022-11-15T13:54:43;3.67;;;1.00;;
67981;SDS011;64109;52.148;4.466;2022-11-15T13:59:46;5.60;;;1.23;;
67981;SDS011;64109;52.148;4.466;2022-11-15T14:02:13;4.03;;;1.48;;
67981;SDS011;64109;52.148;4.466;2022-11-15T14:04:48;3.03;;;0.98;;
67981;SDS011;64109;52.148;4.466;2022-11-15T14:07:18;3.55;;;1.20;;
67981;SDS011;64109;52.148;4.466;2022-11-15T14:09:44;3.92;;;1.45;;
67981;SDS011;64109;52.148;4.466;2022-11-15T14:14:52;2.88;;;1.20;;
67981;SDS011;64109;52.148;4.466;2022-11-15T14:17:20;2.90;;;1.30;;
67981;SDS011;64109;52.148;4.466;2022-11-15T14:19:48;2.92;;;1.38;;
67981;SDS011;64109;52.148;4.466;2022-11-15T14:24:46;3.75;;;1.33;;
67981;SDS011;64109;52.148;4.466;2022-11-15T14:27:22;2.30;;;1.00;;
67981;SDS011;64109;52.148;4.466;2022-11-15T14:29:49;3.00;;;1.30;;
67981;SDS011;64109;52.148;4.466;2022-11-15T14:32:16;3.58;;;1.23;;
67981;SDS011;64109;52.148;4.466;2022-11-15T14:34:44;3.60;;;1.23;;
67981;SDS011;64109;52.148;4.466;2022-11-15T14:37:16;2.80;;;1.05;;
67981;SDS011;64109;52.148;4.466;2022-11-15T14:39:43;4.85;;;1.05;;
67981;SDS011;64109;52.148;4.466;2022-11-15T14:42:09;4.22;;;1.05;;
67981;SDS011;64109;52.148;4.466;2022-11-15T14:44:35;2.30;;;0.80;;
67981;SDS011;64109;52.148;4.466;2022-11-15T14:47:01;2.75;;;0.88;;
67981;SDS011;64109;52.148;4.466;2022-11-15T14:49:27;2.83;;;0.82;;
67981;SDS011;64109;52.148;4.466;2022-11-15T14:51:53;4.05;;;1.08;;
67981;SDS011;64109;52.148;4.466;2022-11-15T14:54:19;3.83;;;1.10;;
67981;SDS011;64109;52.148;4.466;2022-11-15T14:56:45;3.20;;;1.00;;
67981;SDS011;64109;52.148;4.466;2022-11-15T14:59:11;1.52;;;0.88;;
67981;SDS011;64109;52.148;4.466;2022-11-15T15:01:37;1.98;;;0.90;;
67981;SDS011;64109;52.148;4.466;2022-11-15T15:04:03;3.55;;;1.00;;
67981;SDS011;64109;52.148;4.466;2022-11-15T15:06:29;1.88;;;0.93;;
67981;SDS011;64109;52.148;4.466;2022-11-15T15:08:55;3.90;;;1.10;;
67981;SDS011;64109;52.148;4.466;2022-11-15T15:11:28;3.00;;;1.15;;
67981;SDS011;64109;52.148;4.466;2022-11-15T15:13:55;2.13;;;0.93;;
67981;SDS011;64109;52.148;4.466;2022-11-15T15:16:23;3.15;;;0.93;;
67981;SDS011;64109;52.148;4.466;2022-11-15T15:18:49;2.47;;;1.02;;
67981;SDS011;64109;52.148;4.466;2022-11-15T15:23:45;2.63;;;1.27;;
67981;SDS011;64109;52.148;4.466;2022-11-15T15:26:10;2.50;;;1.08;;
67981;SDS011;64109;52.148;4.466;2022-11-15T15:28:36;4.38;;;1.20;;
67981;SDS011;64109;52.148;4.466;2022-11-15T15:31:04;6.25;;;1.00;;
67981;SDS011;64109;52.148;4.466;2022-11-15T15:33:30;3.70;;;1.23;;
67981;SDS011;64109;52.148;4.466;2022-11-15T15:35:57;2.65;;;0.80;;
67981;SDS011;64109;52.148;4.466;2022-11-15T15:38:23;1.73;;;0.70;;
67981;SDS011;64109;52.148;4.466;2022-11-15T15:40:49;1.88;;;0.70;;
67981;SDS011;64109;52.148;4.466;2022-11-15T15:43:15;2.67;;;0.98;;
67981;SDS011;64109;52.148;4.466;2022-11-15T15:45:41;2.47;;;1.05;;
67981;SDS011;64109;52.148;4.466;2022-11-15T15:48:14;6.15;;;1.10;;
67981;SDS011;64109;52.148;4.466;2022-11-15T15:50:41;3.05;;;0.80;;
67981;SDS011;64109;52.148;4.466;2022-11-15T15:53:10;4.05;;;1.13;;
67981;SDS011;64109;52.148;4.466;2022-11-15T15:55:36;4.03;;;0.70;;
67981;SDS011;64109;52.148;4.466;2022-11-15T15:58:03;2.75;;;0.80;;
67981;SDS011;64109;52.148;4.466;2022-11-15T16:00:29;3.45;;;1.08;;
67981;SDS011;64109;52.148;4.466;2022-11-15T16:02:58;5.60;;;1.25;;
67981;SDS011;64109;52.148;4.466;2022-11-15T16:05:24;3.78;;;0.80;;
67981;SDS011;64109;52.148;4.466;2022-11-15T16:07:50;2.70;;;1.08;;
67981;SDS011;64109;52.148;4.466;2022-11-15T16:12:42;5.55;;;1.20;;
67981;SDS011;64109;52.148;4.466;2022-11-15T16:15:08;1.90;;;1.10;;
67981;SDS011;64109;52.148;4.466;2022-11-15T16:17:35;2.03;;;0.80;;
67981;SDS011;64109;52.148;4.466;2022-11-15T16:20:03;3.25;;;1.00;;
67981;SDS011;64109;52.148;4.466;2022-11-15T16:22:29;5.13;;;1.00;;
67981;SDS011;64109;52.148;4.466;2022-11-15T16:24:55;3.22;;;0.90;;
67981;SDS011;64109;52.148;4.466;2022-11-15T16:27:21;3.47;;;1.10;;
67981;SDS011;64109;52.148;4.466;2022-11-15T16:29:47;3.22;;;0.98;;
67981;SDS011;64109;52.148;4.466;2022-11-15T16:32:14;2.42;;;1.98;;
67981;SDS011;64109;52.148;4.466;2022-11-15T16:34:40;3.47;;;0.70;;
67981;SDS011;64109;52.148;4.466;2022-11-15T16:37:11;3.35;;;0.80;;
67981;SDS011;64109;52.148;4.466;2022-11-15T16:39:41;3.80;;;1.00;;
67981;SDS011;64109;52.148;4.466;2022-11-15T16:42:07;2.95;;;1.10;;
67981;SDS011;64109;52.148;4.466;2022-11-15T16:44:32;4.70;;;1.95;;
67981;SDS011;64109;52.148;4.466;2022-11-15T16:46:58;3.35;;;0.77;;
67981;SDS011;64109;52.148;4.466;2022-11-15T16:49:24;2.22;;;1.02;;
67981;SDS011;64109;52.148;4.466;2022-11-15T16:51:50;2.53;;;1.00;;
67981;SDS011;64109;52.148;4.466;2022-11-15T16:54:16;2.13;;;1.05;;
67981;SDS011;64109;52.148;4.466;2022-11-15T16:56:42;3.25;;;1.35;;
67981;SDS011;64109;52.148;4.466;2022-11-15T16:59:10;2.30;;;0.80;;
67981;SDS011;64109;52.148;4.466;2022-11-15T17:01:39;4.80;;;1.00;;
67981;SDS011;64109;52.148;4.466;2022-11-15T17:04:10;3.72;;;0.90;;
67981;SDS011;64109;52.148;4.466;2022-11-15T17:06:40;3.28;;;1.00;;